Kailua, HI

8:34 AM HST on June 26, 2017 (GMT -1000)
Kailua Estates | | Change Station

Elev 7 ft 21.40 °N, 157.73 °W | Updated 14 seconds ago

Partly Cloudy
Partly Cloudy
85.3 °F
Feels Like 92 °F
N
3.2
Wind Variable Wind from NNE

Today
High -- | Low -- °F
--% Chance of Precip.
Yesterday
High -- | Low -- °F
Precip. -- in
Pressure 30.05 in
Visibility 7.0 miles
Clouds Few 2500 ft
Mostly Cloudy 4500 ft
Heat Index 92 °F
Dew Point 72 °F
Humidity 65%
Rainfall 0.00 in
Snow Depth Not available.
5:50 AM 7:16 PM
Waxing Crescent, 10% visible
METAR PHNG 261757Z 06006KT 7SM FEW025 BKN045 28/22 A3006 RMK SLP174 60000 T02780222 10278 20261 53003
Pressure 30.05 in
Visibility 7.0 miles
Clouds Few 2500 ft
Mostly Cloudy 4500 ft
Heat Index 92 °F
Dew Point 72 °F
Humidity 65%
Rainfall 0.00 in
Snow Depth Not available.
5:50 AM 7:16 PM
Waxing Crescent, 10% visible
METAR PHNG 261757Z 06006KT 7SM FEW025 BKN045 28/22 A3006 RMK SLP174 60000 T02780222 10278 20261 53003

Get Severe Weather Alerts

Thanks for signing up!

Be on the lookout for a verification email in your inbox.

You'll start receiving the daily forecast at 6 AM.

×

10-Day Weather Forecast

Almanac

Astronomy

Jun. 26, 2017 Rise Set
Actual Time
Civil Twilight
Nautical Twilight
Astronomical Twilight
Moon
Length of Visible Light
Length of Day
Tomorrow will be .
, % of the Moon is Illuminated

Today's Extremes

State Highs State Lows

Community

WunderPhotos

Category 6

Welcome to Category 6. This is the collective home for Weather Underground's featured writeups by Dr. Jeff Masters (right), Bob Henson (left), Chris Burt, and other regular contributors.

Nearby

Air Quality

  Air Quality AQ Index Pollutant
Not available.

Snow Depth

Station Depth Elevation

Earthquake Activity

City Distance Mag. Time & Date
Minimum magnitude displayed is 2.5.

Coastal Water Temperatures

Place Temperature

Stations

Nearby Weather Stations

Station Location Temp. Windchill Dew Point Humidity Wind Precip. Elev Updated Type
                   

Watches & Warnings

There are currently no watches in effect.